Time;durP1;ratioP1;P1;durP2;ratioP2;P2;SDS_P1;SDS_P2;PMS_P1;PMS_P2;Temp;Humidity;BMP_temperature;BMP_pressure;BME280_temperature;BME280_humidity;BME280_pressure;Samples;Min_cycle;Max_cycle;Signal;HPM_P1;HPM_P2
2023/03/06 00:00:42;;;;;;;10.57;3.60;;;1.80;99.90;;;;;;5022090;28;20140;-72
2023/03/06 00:03:08;;;;;;;;;;;1.80;99.90;;;;;;5041724;28;20123;-71
2023/03/06 00:05:34;;;;;;;8.03;4.07;;;1.90;99.90;;;;;;5023446;28;20015;-71
2023/03/06 00:07:59;;;;;;;12.73;4.13;;;1.90;99.90;;;;;;5038136;28;20099;-72
2023/03/06 00:10:28;;;;;;;6.80;3.67;;;1.90;99.90;;;;;;5026777;28;20054;-72
2023/03/06 00:12:55;;;;;;;9.47;4.13;;;1.90;99.90;;;;;;5039921;28;20125;-72
2023/03/06 00:15:22;;;;;;;9.90;3.80;;;1.90;99.90;;;;;;5059627;28;20041;-71
2023/03/06 00:17:48;;;;;;;8.37;4.10;;;1.90;99.90;;;;;;5044342;28;20037;-72
2023/03/06 00:20:14;;;;;;;8.43;4.20;;;1.90;99.90;;;;;;5022055;28;20362;-72
2023/03/06 00:22:41;;;;;;;9.43;3.77;;;2.00;99.90;;;;;;5021383;28;20048;-71
2023/03/06 00:25:11;;;;;;;6.90;3.83;;;2.00;99.90;;;;;;5038759;28;20044;-71
2023/03/06 00:27:37;;;;;;;8.00;3.30;;;2.00;99.90;;;;;;5051711;28;20080;-72
2023/03/06 00:30:03;;;;;;;7.87;3.83;;;2.00;99.90;;;;;;5022087;28;20069;-71
2023/03/06 00:32:29;;;;;;;10.23;3.90;;;2.10;99.90;;;;;;5029183;28;20037;-71
2023/03/06 00:34:56;;;;;;;10.23;4.30;;;2.10;99.90;;;;;;5068753;28;20113;-73
2023/03/06 00:37:28;;;;;;;8.40;4.23;;;2.00;99.90;;;;;;5083037;28;20083;-71
2023/03/06 00:39:53;;;;;;;9.47;3.67;;;2.00;99.90;;;;;;5037810;28;20048;-71
2023/03/06 00:42:19;;;;;;;8.47;3.70;;;2.00;99.90;;;;;;5060678;28;20055;-72
2023/03/06 00:44:45;;;;;;;7.77;3.83;;;2.00;99.90;;;;;;5077331;28;20086;-72
2023/03/06 00:47:11;;;;;;;9.20;3.80;;;2.10;99.90;;;;;;5081277;28;20524;-72
2023/03/06 00:49:38;;;;;;;7.40;3.77;;;2.10;99.90;;;;;;5071758;28;20577;-72
2023/03/06 00:52:04;;;;;;;8.33;3.53;;;2.10;99.90;;;;;;5049132;28;20052;-72
2023/03/06 00:54:30;;;;;;;8.20;3.90;;;2.20;99.90;;;;;;5065939;28;20055;-72
2023/03/06 00:56:56;;;;;;;9.23;4.07;;;2.20;99.90;;;;;;5075935;28;20040;-72
2023/03/06 00:59:22;;;;;;;6.03;3.60;;;2.20;99.90;;;;;;5069126;28;20044;-72
2023/03/06 01:01:47;;;;;;;6.87;3.73;;;2.30;99.90;;;;;;5075793;28;20044;-72
2023/03/06 01:04:14;;;;;;;10.23;3.70;;;2.20;99.90;;;;;;5086178;28;20109;-72
2023/03/06 01:06:39;;;;;;;8.87;4.33;;;2.30;99.90;;;;;;5050776;28;20072;-72
2023/03/06 01:09:05;;;;;;;7.63;4.13;;;2.30;99.90;;;;;;5061609;28;20099;-71
2023/03/06 01:11:34;;;;;;;6.40;3.63;;;2.30;99.90;;;;;;5076099;28;20524;-72
2023/03/06 01:14:00;;;;;;;8.17;4.07;;;2.30;99.90;;;;;;5061202;28;20035;-71
2023/03/06 01:16:26;;;;;;;8.70;3.97;;;2.30;99.90;;;;;;5051592;28;20036;-72
2023/03/06 01:18:52;;;;;;;7.97;3.77;;;2.30;99.90;;;;;;5054268;28;20056;-71
2023/03/06 01:21:21;;;;;;;7.90;4.07;;;2.30;99.90;;;;;;5037597;28;20043;-72
2023/03/06 01:23:46;;;;;;;9.33;4.10;;;2.30;99.90;;;;;;5067232;28;20052;-72
2023/03/06 01:26:12;;;;;;;7.50;3.37;;;2.40;99.90;;;;;;5033889;28;20044;-72
2023/03/06 01:28:39;;;;;;;6.87;3.60;;;2.30;99.90;;;;;;5075737;28;20399;-72
2023/03/06 01:31:06;;;;;;;6.50;3.83;;;2.40;99.90;;;;;;5074325;28;20048;-72
2023/03/06 01:33:32;;;;;;;8.20;4.67;;;2.30;99.90;;;;;;5053506;28;20051;-72
2023/03/06 01:35:58;;;;;;;8.07;3.73;;;2.50;99.90;;;;;;5058850;28;20043;-71
2023/03/06 01:38:24;;;;;;;7.47;3.83;;;2.40;99.90;;;;;;5067094;28;20093;-72
2023/03/06 01:40:50;;;;;;;8.40;4.00;;;2.40;99.90;;;;;;5041261;28;20040;-71
2023/03/06 01:43:25;;;;;;;8.83;4.33;;;2.40;99.90;;;;;;5052320;28;20137;-72
2023/03/06 01:46:16;;;;;;;10.57;4.20;;;2.60;99.90;;;;;;5054271;28;20044;-72
2023/03/06 01:48:43;;;;;;;8.00;4.30;;;2.50;99.90;;;;;;5055623;28;20073;-73
2023/03/06 01:51:10;;;;;;;6.70;3.65;;;2.40;99.90;;;;;;5053659;28;20101;-72
2023/03/06 01:53:37;;;;;;;10.37;4.30;;;2.40;99.90;;;;;;5053879;28;20402;-72
2023/03/06 01:56:04;;;;;;;9.50;4.10;;;2.50;99.90;;;;;;5058648;28;20039;-72
2023/03/06 01:58:30;;;;;;;8.53;3.83;;;2.50;99.90;;;;;;5056869;28;20070;-72
2023/03/06 02:00:55;;;;;;;7.70;3.87;;;2.50;99.90;;;;;;5073486;28;20048;-72
2023/03/06 02:03:24;;;;;;;8.67;4.03;;;2.60;99.90;;;;;;5048775;28;20062;-72
2023/03/06 02:05:53;;;;;;;7.40;3.77;;;2.50;99.90;;;;;;5051569;28;20534;-72
2023/03/06 02:08:22;;;;;;;8.43;3.73;;;2.50;99.90;;;;;;5070521;28;20032;-72
2023/03/06 02:11:06;;;;;;;7.50;3.50;;;2.50;99.90;;;;;;5074181;28;20054;-72
2023/03/06 02:13:36;;;;;;;7.47;3.60;;;2.60;99.90;;;;;;5069346;28;20051;-73
2023/03/06 02:16:03;;;;;;;7.03;3.63;;;2.70;99.90;;;;;;5058957;28;20067;-72
2023/03/06 02:18:30;;;;;;;7.53;3.43;;;2.60;99.90;;;;;;5073591;28;20040;-72
2023/03/06 02:20:59;;;;;;;7.07;3.10;;;2.60;99.90;;;;;;5058762;28;20062;-72
2023/03/06 02:23:35;;;;;;;6.38;3.17;;;2.60;99.90;;;;;;5057153;28;20047;-73
2023/03/06 02:26:02;;;;;;;6.90;3.60;;;2.70;99.90;;;;;;5075770;28;20097;-72
2023/03/06 02:28:28;;;;;;;8.80;3.70;;;2.70;99.90;;;;;;5045524;28;20051;-73
2023/03/06 02:30:57;;;;;;;6.03;3.40;;;2.70;99.90;;;;;;5052483;28;20059;-73
2023/03/06 02:33:25;;;;;;;6.53;3.50;;;2.70;99.90;;;;;;5073606;28;20116;-73
2023/03/06 02:36:03;;;;;;;8.27;3.70;;;2.60;99.90;;;;;;5072457;28;20054;-73
2023/03/06 02:38:34;;;;;;;7.47;3.90;;;2.60;99.90;;;;;;5070587;28;20056;-73
2023/03/06 02:41:02;;;;;;;6.83;3.63;;;2.50;99.90;;;;;;5050899;28;20043;-73
2023/03/06 02:43:31;;;;;;;9.20;3.63;;;2.60;99.90;;;;;;5069321;28;20149;-73
2023/03/06 02:45:57;;;;;;;9.33;3.80;;;2.60;99.90;;;;;;5063534;28;20495;-73
2023/03/06 02:48:23;;;;;;;8.40;4.00;;;2.60;99.90;;;;;;5070360;28;20039;-73
2023/03/06 02:50:49;;;;;;;7.87;3.77;;;2.60;99.90;;;;;;5048652;28;20073;-73
2023/03/06 02:53:17;;;;;;;8.57;3.87;;;2.60;99.90;;;;;;5067515;28;20383;-73
2023/03/06 02:55:45;;;;;;;11.50;4.50;;;2.60;99.90;;;;;;5048457;28;20402;-73
2023/03/06 02:58:10;;;;;;;9.10;4.10;;;2.60;99.90;;;;;;5084752;28;20044;-73
2023/03/06 03:00:37;;;;;;;11.87;4.30;;;2.60;99.90;;;;;;5082413;28;20063;-72
2023/03/06 03:03:04;;;;;;;10.93;4.53;;;2.50;99.90;;;;;;5068819;28;20127;-73
2023/03/06 03:05:32;;;;;;;9.80;4.27;;;2.50;99.90;;;;;;5029036;28;20666;-72
2023/03/06 03:07:58;;;;;;;7.30;4.40;;;2.60;99.90;;;;;;5068481;28;20048;-73
2023/03/06 03:10:25;;;;;;;8.37;4.27;;;2.70;99.90;;;;;;5067096;28;20052;-73
2023/03/06 03:12:50;;;;;;;11.07;5.05;;;2.60;99.90;;;;;;5051586;28;20124;-73
2023/03/06 03:15:20;;;;;;;6.33;4.20;;;2.70;99.90;;;;;;5071839;28;20123;-73
2023/03/06 03:17:46;;;;;;;6.45;4.03;;;2.70;99.90;;;;;;5058478;28;20058;-72
2023/03/06 03:20:15;;;;;;;8.73;5.00;;;2.70;99.90;;;;;;5061468;28;20059;-73
2023/03/06 03:22:41;;;;;;;6.53;4.33;;;2.70;99.90;;;;;;5045120;28;20123;-73
2023/03/06 03:25:07;;;;;;;9.43;4.75;;;2.70;99.90;;;;;;5029977;28;20039;-72
2023/03/06 03:27:34;;;;;;;5.37;4.03;;;2.70;99.90;;;;;;5061541;28;20039;-73
2023/03/06 03:30:00;;;;;;;7.65;4.38;;;2.70;99.90;;;;;;5059713;28;20048;-73
2023/03/06 03:32:25;;;;;;;6.22;3.58;;;2.70;99.90;;;;;;5045068;28;20583;-73
2023/03/06 03:34:53;;;;;;;6.23;4.30;;;2.70;99.90;;;;;;5063564;28;20183;-73
2023/03/06 03:37:19;;;;;;;7.97;4.15;;;2.80;99.90;;;;;;5043309;28;20363;-73
2023/03/06 03:39:45;;;;;;;6.53;4.07;;;2.70;99.90;;;;;;5054156;28;20545;-73
2023/03/06 03:42:11;;;;;;;8.07;4.15;;;2.70;99.90;;;;;;5055009;28;20679;-73
2023/03/06 03:44:37;;;;;;;4.07;3.47;;;2.70;99.90;;;;;;5050422;28;20050;-73
2023/03/06 03:47:04;;;;;;;7.17;3.67;;;2.80;99.90;;;;;;5073830;28;20502;-73
2023/03/06 03:49:29;;;;;;;8.17;3.67;;;2.80;99.90;;;;;;5095489;28;20043;-73
2023/03/06 03:51:55;;;;;;;6.22;4.10;;;2.80;99.90;;;;;;5101256;27;20043;-71
2023/03/06 03:54:21;;;;;;;5.45;4.00;;;2.80;99.90;;;;;;5043731;28;20555;-71
2023/03/06 03:56:47;;;;;;;4.47;3.33;;;2.80;99.90;;;;;;5078247;28;20054;-71
2023/03/06 03:59:12;;;;;;;5.33;3.37;;;2.80;99.90;;;;;;5062630;28;20135;-74
2023/03/06 04:01:38;;;;;;;5.67;4.17;;;2.80;99.90;;;;;;5044343;28;21755;-71
2023/03/06 04:04:04;;;;;;;5.13;3.67;;;2.80;99.90;;;;;;5040597;28;20892;-71
2023/03/06 04:06:30;;;;;;;6.57;3.83;;;2.80;99.90;;;;;;5058419;28;20592;-71
2023/03/06 04:08:56;;;;;;;5.03;4.17;;;2.90;99.90;;;;;;5075097;28;20119;-71
2023/03/06 04:11:22;;;;;;;6.17;4.37;;;2.80;99.90;;;;;;5059896;28;20118;-71
2023/03/06 04:13:48;;;;;;;5.27;3.27;;;2.80;99.90;;;;;;5076268;28;20577;-71
2023/03/06 04:16:14;;;;;;;4.80;2.73;;;2.80;99.90;;;;;;5077021;28;20040;-74
2023/03/06 04:18:44;;;;;;;4.00;3.00;;;2.90;99.90;;;;;;5083116;27;20790;-74
2023/03/06 04:21:10;;;;;;;3.78;3.00;;;2.70;99.90;;;;;;5072009;28;20068;-75
2023/03/06 04:23:36;;;;;;;4.83;3.33;;;2.50;99.90;;;;;;5056149;28;20140;-74
2023/03/06 04:26:02;;;;;;;4.77;3.17;;;2.40;99.90;;;;;;5051140;28;20105;-74
2023/03/06 04:28:28;;;;;;;4.40;3.50;;;2.30;99.90;;;;;;5073498;28;20141;-74
2023/03/06 04:30:53;;;;;;;4.33;3.60;;;2.10;99.90;;;;;;5055517;28;21713;-74
2023/03/06 04:33:19;;;;;;;5.67;3.97;;;2.10;99.90;;;;;;5048627;28;20047;-74
2023/03/06 04:35:45;;;;;;;4.70;3.53;;;2.00;99.90;;;;;;5076129;28;20054;-74
2023/03/06 04:38:11;;;;;;;3.80;3.07;;;1.90;99.90;;;;;;5065552;28;20048;-71
2023/03/06 04:40:37;;;;;;;4.23;3.23;;;1.90;99.90;;;;;;5047764;28;20051;-71
2023/03/06 04:43:03;;;;;;;3.70;3.00;;;1.80;99.90;;;;;;5062835;28;20052;-72
2023/03/06 04:45:31;;;;;;;4.93;2.73;;;1.70;99.90;;;;;;5065134;28;20055;-72
2023/03/06 04:47:57;;;;;;;3.80;3.10;;;1.80;99.90;;;;;;5080512;28;20075;-72
2023/03/06 04:50:24;;;;;;;3.60;2.80;;;1.70;99.90;;;;;;5062531;28;20578;-72
2023/03/06 04:52:51;;;;;;;4.53;3.30;;;1.70;99.90;;;;;;5064215;28;20501;-71
2023/03/06 04:55:17;;;;;;;4.13;3.20;;;1.70;99.90;;;;;;5050289;28;20241;-71
2023/03/06 04:57:45;;;;;;;3.80;3.00;;;1.70;99.90;;;;;;5076138;28;20576;-71
2023/03/06 05:00:17;;;;;;;4.10;2.77;;;1.70;99.90;;;;;;5054652;28;20036;-71
2023/03/06 05:02:44;;;;;;;4.40;2.80;;;1.70;99.90;;;;;;5051166;28;20040;-71
2023/03/06 05:05:11;;;;;;;3.80;2.87;;;1.80;99.90;;;;;;5074787;28;20047;-71
2023/03/06 05:07:37;;;;;;;4.23;3.10;;;1.70;99.90;;;;;;5075709;28;20052;-71
2023/03/06 05:10:04;;;;;;;3.40;2.93;;;1.70;99.90;;;;;;5053326;28;20032;-71
2023/03/06 05:12:29;;;;;;;4.83;2.90;;;1.70;99.90;;;;;;5051774;28;20040;-71
2023/03/06 05:14:59;;;;;;;4.63;3.30;;;1.70;99.90;;;;;;5057292;28;20486;-71
2023/03/06 05:17:27;;;;;;;3.87;2.73;;;1.60;99.90;;;;;;5057598;28;20126;-71
2023/03/06 05:19:53;;;;;;;4.00;2.80;;;1.60;99.90;;;;;;5040666;28;20052;-74
2023/03/06 05:22:18;;;;;;;4.00;2.70;;;1.70;99.90;;;;;;5041617;28;20043;-71
2023/03/06 05:24:44;;;;;;;4.77;3.00;;;1.60;99.90;;;;;;5076909;28;20044;-71
2023/03/06 05:27:10;;;;;;;3.37;2.50;;;1.70;99.90;;;;;;5077170;28;20056;-71
2023/03/06 05:29:36;;;;;;;7.07;3.37;;;1.60;99.90;;;;;;5060165;28;20556;-71
2023/03/06 05:32:02;;;;;;;4.50;2.93;;;1.60;99.90;;;;;;5076611;28;20076;-71
2023/03/06 05:34:28;;;;;;;5.70;3.07;;;1.60;99.90;;;;;;5073799;28;20048;-71
2023/03/06 05:36:54;;;;;;;4.47;3.30;;;1.60;99.90;;;;;;5075491;28;20817;-71
2023/03/06 05:39:20;;;;;;;3.87;2.87;;;1.60;99.90;;;;;;5059772;28;20051;-71
2023/03/06 05:41:46;;;;;;;7.23;4.33;;;1.50;99.90;;;;;;5039666;28;20056;-71
2023/03/06 05:44:11;;;;;;;5.50;3.70;;;1.60;99.90;;;;;;5024009;28;20074;-71
2023/03/06 05:46:37;;;;;;;5.20;3.80;;;1.50;99.90;;;;;;5039381;28;20097;-71
2023/03/06 05:49:05;;;;;;;5.07;3.67;;;1.50;99.90;;;;;;5046270;28;20047;-71
2023/03/06 05:51:31;;;;;;;4.13;3.10;;;1.60;99.90;;;;;;5055795;28;20506;-71
2023/03/06 05:53:57;;;;;;;4.73;3.10;;;1.50;99.90;;;;;;5019319;28;20067;-72
2023/03/06 05:56:23;;;;;;;5.47;3.77;;;1.50;99.90;;;;;;5070133;28;20054;-71
2023/03/06 05:58:49;;;;;;;3.87;3.40;;;1.50;99.90;;;;;;5069989;28;20435;-71
2023/03/06 06:01:18;;;;;;;4.63;3.63;;;1.50;99.90;;;;;;5054247;28;20040;-73
2023/03/06 06:03:44;;;;;;;4.73;3.27;;;1.60;99.90;;;;;;5052237;28;20044;-73
2023/03/06 06:06:12;;;;;;;4.43;3.40;;;1.60;99.90;;;;;;5073293;28;20718;-73
2023/03/06 06:08:38;;;;;;;6.03;3.87;;;1.60;99.90;;;;;;5069018;28;20044;-73
2023/03/06 06:11:05;;;;;;;5.53;3.70;;;1.60;99.90;;;;;;5083738;28;20247;-73
2023/03/06 06:13:34;;;;;;;5.30;3.70;;;1.50;99.90;;;;;;5034504;28;20048;-70
2023/03/06 06:16:10;;;;;;;4.60;3.70;;;1.50;99.90;;;;;;5066877;28;20048;-71
2023/03/06 06:18:37;;;;;;;6.33;3.53;;;1.50;99.90;;;;;;5070141;28;20088;-71
2023/03/06 06:21:06;;;;;;;5.77;4.23;;;1.40;99.90;;;;;;5044945;28;20109;-71
2023/03/06 06:23:32;;;;;;;6.53;4.05;;;1.40;99.90;;;;;;5073636;28;20162;-71
2023/03/06 06:25:59;;;;;;;5.10;3.47;;;1.30;99.90;;;;;;5036737;28;20115;-71
2023/03/06 06:28:27;;;;;;;4.73;3.33;;;1.30;99.90;;;;;;5071710;28;20066;-70
2023/03/06 06:30:53;;;;;;;6.53;4.80;;;1.30;99.90;;;;;;5073344;28;20498;-71
2023/03/06 06:33:19;;;;;;;4.93;3.53;;;1.20;99.90;;;;;;5070777;28;20062;-71
2023/03/06 06:35:45;;;;;;;5.77;4.23;;;1.20;99.90;;;;;;5052975;28;20056;-75
2023/03/06 06:38:11;;;;;;;9.33;5.87;;;1.20;99.90;;;;;;5040754;28;20062;-73
2023/03/06 06:40:37;;;;;;;11.30;6.30;;;1.20;99.90;;;;;;5053447;28;20044;-73
2023/03/06 06:43:03;;;;;;;11.20;8.20;;;1.20;99.90;;;;;;5050142;28;20674;-72
2023/03/06 06:45:28;;;;;;;14.43;8.23;;;1.20;99.90;;;;;;5050180;28;20048;-72
2023/03/06 06:47:54;;;;;;;10.93;6.63;;;1.20;99.90;;;;;;5071139;28;20513;-72
2023/03/06 06:50:20;;;;;;;10.53;6.30;;;1.30;99.90;;;;;;5076004;28;20071;-72
2023/03/06 06:52:46;;;;;;;11.30;6.67;;;1.30;99.90;;;;;;5077145;28;20152;-72
2023/03/06 06:55:13;;;;;;;6.53;4.97;;;1.30;99.90;;;;;;5061907;28;20044;-71
2023/03/06 06:57:40;;;;;;;8.10;5.50;;;1.40;99.90;;;;;;5075071;28;20766;-72
2023/03/06 07:00:08;;;;;;;7.30;5.67;;;1.50;99.90;;;;;;5057412;28;20723;-72
2023/03/06 07:02:34;;;;;;;7.17;4.90;;;1.50;99.90;;;;;;5063825;28;20047;-72
2023/03/06 07:05:00;;;;;;;8.67;5.93;;;1.60;99.90;;;;;;5065655;28;20047;-72
2023/03/06 07:07:26;;;;;;;8.90;6.97;;;1.60;99.90;;;;;;5066785;28;20043;-72
2023/03/06 07:09:51;;;;;;;9.77;6.83;;;1.70;99.90;;;;;;5040609;28;20075;-72
2023/03/06 07:12:17;;;;;;;8.43;6.30;;;1.80;99.90;;;;;;5057957;28;20491;-72
2023/03/06 07:14:47;;;;;;;7.97;5.67;;;1.80;99.90;;;;;;5057512;28;20048;-72
2023/03/06 07:17:13;;;;;;;6.97;5.17;;;1.80;99.90;;;;;;5089896;28;20048;-72
2023/03/06 07:19:39;;;;;;;7.87;5.63;;;1.70;99.90;;;;;;5038537;28;20032;-72
2023/03/06 07:22:06;;;;;;;7.67;5.27;;;1.80;99.90;;;;;;5076738;28;20071;-70
2023/03/06 07:24:32;;;;;;;7.50;4.80;;;1.70;99.90;;;;;;5056902;28;20101;-71
2023/03/06 07:26:58;;;;;;;8.03;5.57;;;1.70;99.90;;;;;;5073186;28;20634;-71
2023/03/06 07:29:24;;;;;;;9.60;6.87;;;1.70;99.90;;;;;;5072731;28;20097;-73
2023/03/06 07:31:55;;;;;;;8.93;5.70;;;1.70;99.90;;;;;;5072518;28;20093;-73
2023/03/06 07:34:21;;;;;;;10.70;7.03;;;1.70;99.90;;;;;;5055504;28;20055;-73
2023/03/06 07:36:49;;;;;;;8.67;6.10;;;1.70;99.90;;;;;;5076206;28;20048;-73
2023/03/06 07:39:15;;;;;;;9.20;6.00;;;1.70;99.90;;;;;;5061466;28;20071;-73
2023/03/06 07:41:41;;;;;;;8.80;5.97;;;1.60;99.90;;;;;;5074259;28;20186;-73
2023/03/06 07:44:07;;;;;;;7.37;5.20;;;1.70;99.90;;;;;;5071509;28;20048;-73
2023/03/06 07:46:33;;;;;;;8.73;5.87;;;1.70;99.90;;;;;;5050482;28;20040;-73
2023/03/06 07:48:58;;;;;;;6.90;5.17;;;1.70;99.90;;;;;;5057672;28;20059;-73
2023/03/06 07:51:24;;;;;;;8.50;5.37;;;1.70;99.90;;;;;;5075122;28;20154;-73
2023/03/06 07:53:50;;;;;;;8.10;5.00;;;1.70;99.90;;;;;;5089582;27;20406;-73
2023/03/06 07:56:16;;;;;;;6.67;4.97;;;1.80;99.90;;;;;;5039010;28;20043;-73
2023/03/06 07:58:44;;;;;;;7.00;5.20;;;1.80;99.90;;;;;;5057146;28;20048;-73
2023/03/06 08:01:13;;;;;;;8.37;5.20;;;1.80;99.90;;;;;;5058080;28;20083;-73
2023/03/06 08:03:39;;;;;;;9.20;4.77;;;1.90;99.90;;;;;;5075427;28;20123;-73
2023/03/06 08:06:08;;;;;;;7.60;4.80;;;1.90;99.90;;;;;;5058603;28;20067;-74
2023/03/06 08:08:38;;;;;;;8.83;4.40;;;2.00;99.90;;;;;;5057383;28;20044;-73
2023/03/06 08:11:05;;;;;;;7.93;4.70;;;2.10;99.90;;;;;;5077428;28;20134;-73
2023/03/06 08:13:31;;;;;;;9.17;4.83;;;2.20;99.90;;;;;;5041582;28;20097;-73
2023/03/06 08:15:58;;;;;;;6.23;4.27;;;2.40;99.90;;;;;;5075089;28;20040;-73
2023/03/06 08:18:27;;;;;;;5.27;3.73;;;2.50;99.90;;;;;;5088088;28;20131;-74
2023/03/06 08:21:10;;;;;;;4.68;3.15;;;2.70;99.90;;;;;;5055444;28;20039;-74
2023/03/06 08:23:36;;;;;;;4.28;2.92;;;3.00;99.90;;;;;;5073747;28;20059;-73
2023/03/06 08:26:09;;;;;;;4.47;2.60;;;3.20;99.90;;;;;;5057764;28;20058;-74
2023/03/06 08:28:35;;;;;;;5.03;2.60;;;3.40;99.90;;;;;;5078392;28;20067;-74
2023/03/06 08:31:29;;;;;;;5.00;2.50;;;3.50;99.90;;;;;;5087339;28;20115;-74
2023/03/06 08:33:57;;;;;;;4.35;2.35;;;3.50;99.90;;;;;;5042062;28;20048;-74
2023/03/06 08:36:23;;;;;;;4.05;2.72;;;3.40;99.90;;;;;;5088690;27;20664;-73
2023/03/06 08:38:49;;;;;;;4.65;2.78;;;3.40;99.90;;;;;;5043743;28;20996;-73
2023/03/06 08:41:15;;;;;;;4.95;3.00;;;3.50;99.90;;;;;;5075138;28;20040;-72
2023/03/06 08:43:41;;;;;;;3.97;2.70;;;3.70;99.90;;;;;;5056163;28;20052;-72
2023/03/06 08:46:10;;;;;;;4.30;2.20;;;3.90;99.90;;;;;;5057935;28;20046;-73
2023/03/06 08:48:39;;;;;;;4.03;2.20;;;4.10;99.90;;;;;;5040996;28;20138;-73
2023/03/06 08:51:10;;;;;;;4.45;1.80;;;4.30;99.90;;;;;;5075227;28;20067;-73
2023/03/06 08:53:36;;;;;;;3.38;1.67;;;4.50;99.90;;;;;;5057079;28;20058;-73
2023/03/06 08:56:03;;;;;;;3.95;1.27;;;4.70;99.90;;;;;;5051885;28;20048;-73
2023/03/06 08:58:29;;;;;;;7.10;1.10;;;4.80;99.90;;;;;;5055353;28;20912;-72
2023/03/06 09:00:55;;;;;;;3.63;1.17;;;4.80;99.90;;;;;;5086584;28;20048;-73
2023/03/06 09:03:22;;;;;;;4.03;0.98;;;4.70;99.90;;;;;;5073398;28;20048;-73
2023/03/06 09:05:48;;;;;;;3.00;1.20;;;4.60;99.90;;;;;;5074462;28;20048;-73
2023/03/06 09:08:15;;;;;;;4.97;1.60;;;4.50;99.90;;;;;;5073347;28;20051;-73
2023/03/06 09:10:51;;;;;;;4.78;1.38;;;4.40;99.90;;;;;;5076882;28;20043;-73
2023/03/06 09:13:16;;;;;;;3.45;1.13;;;4.50;99.90;;;;;;5091734;28;20051;-73
2023/03/06 09:15:42;;;;;;;2.05;1.00;;;4.50;99.90;;;;;;5071988;28;20040;-74
2023/03/06 09:18:08;;;;;;;3.42;1.00;;;4.50;99.90;;;;;;5042198;28;20328;-73
2023/03/06 09:20:34;;;;;;;3.30;1.33;;;4.60;99.90;;;;;;5090939;27;20036;-73
2023/03/06 09:23:00;;;;;;;4.88;1.30;;;4.60;99.90;;;;;;5089363;28;20278;-73
2023/03/06 09:25:26;;;;;;;4.70;1.02;;;4.60;99.90;;;;;;5040077;28;20072;-73
2023/03/06 09:27:51;;;;;;;2.45;0.90;;;4.60;99.90;;;;;;5057234;28;20048;-72
2023/03/06 09:30:17;;;;;;;3.35;0.90;;;4.60;99.90;;;;;;5072126;28;20105;-73
2023/03/06 09:32:46;;;;;;;5.30;1.30;;;4.50;99.90;;;;;;5058039;28;20048;-73
2023/03/06 09:35:13;;;;;;;6.20;1.48;;;4.50;99.90;;;;;;5067504;28;20056;-73
2023/03/06 09:37:40;;;;;;;4.93;1.30;;;4.50;99.90;;;;;;5041195;28;20055;-73
2023/03/06 09:40:13;;;;;;;3.10;1.10;;;4.50;99.90;;;;;;5052940;28;20055;-72
2023/03/06 09:42:39;;;;;;;5.20;1.05;;;4.50;99.90;;;;;;5040852;28;20055;-73
2023/03/06 09:45:09;;;;;;;4.85;1.20;;;4.60;99.90;;;;;;5040147;28;20085;-72
2023/03/06 09:47:47;;;;;;;4.97;1.20;;;4.70;99.90;;;;;;5071647;28;20526;-73
2023/03/06 09:50:16;;;;;;;3.83;1.00;;;4.80;99.90;;;;;;5086380;27;20047;-73
2023/03/06 09:53:09;;;;;;;3.28;1.00;;;4.80;99.90;;;;;;5056877;28;20052;-73
2023/03/06 09:55:38;;;;;;;3.97;0.85;;;4.90;99.90;;;;;;5073224;28;20087;-73
2023/03/06 09:58:14;;;;;;;3.85;0.82;;;4.90;99.90;;;;;;5074071;28;20040;-73
2023/03/06 10:00:42;;;;;;;4.57;0.90;;;4.90;99.90;;;;;;5053108;28;20044;-73
2023/03/06 10:03:27;;;;;;;3.28;1.15;;;5.00;99.90;;;;;;5071774;28;20040;-73
2023/03/06 10:05:56;;;;;;;3.72;0.77;;;5.00;99.90;;;;;;5058351;28;20040;-73
2023/03/06 10:08:54;;;;;;;3.97;1.15;;;5.00;99.90;;;;;;5072771;28;20035;-73
2023/03/06 10:11:48;;;;;;;3.33;0.82;;;5.10;99.90;;;;;;5034015;28;20060;-73
2023/03/06 10:14:36;;;;;;;4.00;0.98;;;5.10;99.90;;;;;;5054830;28;20159;-74
2023/03/06 10:17:04;;;;;;;4.88;0.70;;;5.20;99.90;;;;;;5071595;28;20051;-73
2023/03/06 10:19:41;;;;;;;4.35;0.63;;;5.30;99.90;;;;;;5054002;28;20036;-72
2023/03/06 10:22:35;;;;;;;2.70;0.90;;;5.40;99.90;;;;;;5053831;28;20052;-73
2023/03/06 10:25:23;;;;;;;3.95;0.95;;;5.50;99.90;;;;;;5055248;28;20055;-73
2023/03/06 10:27:50;;;;;;;2.95;0.55;;;5.70;99.90;;;;;;5071493;28;20071;-74
2023/03/06 10:30:37;;;;;;;3.80;0.75;;;5.80;99.90;;;;;;5087885;28;20129;-73
2023/03/06 10:33:14;;;;;;;3.95;0.57;;;5.80;99.90;;;;;;5082047;27;20109;-74
2023/03/06 10:35:48;;;;;;;2.13;0.80;;;5.80;99.90;;;;;;5055160;28;20051;-74
2023/03/06 10:38:26;;;;;;;4.15;0.75;;;5.80;99.90;;;;;;5061715;28;20048;-74
2023/03/06 10:41:10;;;;;;;4.35;0.85;;;5.70;99.90;;;;;;5072703;28;20139;-73
2023/03/06 10:43:41;;;;;;;4.20;0.88;;;5.60;99.90;;;;;;5049384;28;20048;-73
2023/03/06 10:46:13;;;;;;;3.35;0.63;;;5.60;99.90;;;;;;5049954;28;20105;-73
2023/03/06 10:48:40;;;;;;;3.60;0.90;;;5.70;99.90;;;;;;5069036;28;20091;-73
2023/03/06 10:51:23;;;;;;;4.10;0.55;;;5.60;99.90;;;;;;5068960;28;20188;-73
2023/03/06 10:53:52;;;;;;;6.00;1.08;;;5.60;99.90;;;;;;5067942;28;20078;-73
2023/03/06 10:56:43;;;;;;;2.15;0.70;;;5.60;99.90;;;;;;5061452;28;20368;-73
2023/03/06 10:59:30;;;;;;;4.70;0.70;;;5.50;99.90;;;;;;5066425;28;20498;-73
2023/03/06 11:02:26;;;;;;;3.45;0.52;;;5.40;99.90;;;;;;5070797;28;20052;-73
2023/03/06 11:04:54;;;;;;;3.58;0.50;;;5.50;99.90;;;;;;5049581;28;20044;-73
2023/03/06 11:07:28;;;;;;;3.08;0.75;;;5.50;99.90;;;;;;5041518;28;20319;-74
2023/03/06 11:09:59;;;;;;;3.03;0.88;;;5.70;99.90;;;;;;5069752;28;20575;-73
2023/03/06 11:12:26;;;;;;;4.25;0.57;;;5.80;99.90;;;;;;5051413;28;20036;-73
2023/03/06 11:15:20;;;;;;;4.30;0.68;;;5.90;99.90;;;;;;5057498;28;20109;-74
2023/03/06 11:18:06;;;;;;;1.70;0.60;;;6.00;99.90;;;;;;5067871;28;20387;-72
2023/03/06 11:20:47;;;;;;;2.97;0.80;;;6.10;99.90;;;;;;5047947;28;20051;-73
2023/03/06 11:23:17;;;;;;;4.07;0.80;;;6.30;99.90;;;;;;5069331;28;20047;-73
2023/03/06 11:25:49;;;;;;;3.92;0.70;;;6.50;99.90;;;;;;5077146;28;20044;-73
2023/03/06 11:28:40;;;;;;;2.83;0.68;;;6.70;99.90;;;;;;5059888;28;20109;-73
2023/03/06 11:31:21;;;;;;;4.68;1.00;;;6.80;99.90;;;;;;5027375;28;20410;-73
2023/03/06 11:34:00;;;;;;;3.95;0.80;;;6.90;99.90;;;;;;5074378;28;20494;-73
2023/03/06 11:36:44;;;;;;;1.75;0.70;;;7.00;99.40;;;;;;5057019;28;20036;-73
2023/03/06 11:39:23;;;;;;;4.50;1.30;;;6.90;99.90;;;;;;5054508;28;20048;-73
2023/03/06 11:42:02;;;;;;;3.15;0.82;;;6.90;99.90;;;;;;5071493;28;20044;-73
2023/03/06 11:44:47;;;;;;;3.30;1.02;;;6.80;99.90;;;;;;5067748;28;20032;-74
2023/03/06 11:47:18;;;;;;;3.80;0.90;;;6.70;99.90;;;;;;5063707;28;21204;-73
2023/03/06 11:50:04;;;;;;;2.72;0.70;;;6.50;99.90;;;;;;5080237;28;20428;-74
2023/03/06 11:52:52;;;;;;;3.10;0.90;;;6.40;99.90;;;;;;5033315;28;20275;-74
2023/03/06 11:55:58;;;;;;;5.22;0.80;;;6.20;99.90;;;;;;5090688;27;20051;-73
2023/03/06 11:58:45;;;;;;;2.65;0.77;;;6.10;99.90;;;;;;5073384;28;20123;-74
2023/03/06 12:01:26;;;;;;;2.05;0.95;;;5.90;99.90;;;;;;5088875;27;20150;-74
2023/03/06 12:04:20;;;;;;;3.58;1.00;;;5.90;99.90;;;;;;5080191;27;20032;-74
2023/03/06 12:07:05;;;;;;;4.57;0.80;;;5.90;99.90;;;;;;5060924;28;21403;-74
2023/03/06 12:10:03;;;;;;;3.17;0.65;;;5.90;99.90;;;;;;5078629;28;20035;-74
2023/03/06 12:12:57;;;;;;;3.42;0.70;;;5.90;99.90;;;;;;5067326;28;20055;-73
2023/03/06 12:15:45;;;;;;;2.85;0.90;;;6.00;99.90;;;;;;5053561;28;20482;-74
2023/03/06 12:18:53;;;;;;;3.38;0.88;;;6.10;99.90;;;;;;5048701;28;20527;-74
2023/03/06 12:21:49;;;;;;;1.73;0.50;;;6.20;97.60;;;;;;5054683;28;20052;-73
2023/03/06 12:24:15;;;;;;;2.70;0.80;;;6.40;96.60;;;;;;5074090;28;20459;-73
2023/03/06 12:26:47;;;;;;;2.63;0.70;;;6.60;95.60;;;;;;5071760;28;20135;-74
2023/03/06 12:29:21;;;;;;;2.60;0.70;;;6.70;95.20;;;;;;5075682;28;20040;-73
2023/03/06 12:32:07;;;;;;;3.63;0.77;;;6.80;94.70;;;;;;5075029;28;20306;-74
2023/03/06 12:34:57;;;;;;;3.25;0.80;;;6.90;93.90;;;;;;5088822;28;20359;-73
2023/03/06 12:38:01;;;;;;;;;;;6.90;94.50;;;;;;5058773;28;20039;-74
2023/03/06 12:40:56;;;;;;;4.85;1.60;;;6.90;95.50;;;;;;5044043;28;19931;-74
2023/03/06 12:43:47;;;;;;;3.83;1.10;;;6.90;93.80;;;;;;5003094;28;20278;-74
2023/03/06 12:46:16;;;;;;;3.90;1.23;;;6.90;94.20;;;;;;5055524;28;20044;-74
2023/03/06 12:48:47;;;;;;;3.42;1.35;;;6.90;94.50;;;;;;5074929;28;20048;-73
2023/03/06 12:51:19;;;;;;;6.70;1.60;;;7.00;95.00;;;;;;5081146;28;20047;-74
2023/03/06 12:53:45;;;;;;;3.45;1.52;;;7.10;94.40;;;;;;5073749;28;20044;-74
2023/03/06 12:56:15;;;;;;;4.25;1.75;;;7.20;94.30;;;;;;5045501;28;20212;-75
2023/03/06 12:58:52;;;;;;;4.57;1.63;;;7.20;93.70;;;;;;5058281;28;20044;-75
2023/03/06 13:01:39;;;;;;;4.47;1.70;;;7.20;93.70;;;;;;5078633;28;20105;-74
2023/03/06 13:04:23;;;;;;;6.38;1.70;;;7.10;93.20;;;;;;5074013;28;20208;-74
2023/03/06 13:07:11;;;;;;;5.22;1.95;;;7.10;92.20;;;;;;5073403;28;20040;-74
2023/03/06 13:09:57;;;;;;;4.45;1.63;;;7.00;92.70;;;;;;5054555;28;20047;-74
2023/03/06 13:13:00;;;;;;;3.90;1.60;;;7.10;94.20;;;;;;5072346;28;20511;-75
2023/03/06 13:16:03;;;;;;;3.13;1.30;;;7.20;94.30;;;;;;5072124;28;20280;-73